Time;durP1;ratioP1;P1;durP2;ratioP2;P2;SDS_P1;SDS_P2;PMS_P1;PMS_P2;Temp;Humidity;BMP_temperature;BMP_pressure;BME280_temperature;BME280_humidity;BME280_pressure;Samples;Min_cycle;Max_cycle;Signal;HPM_P1;HPM_P2
2021/05/29 00:01:04;;;;;;;6.50;5.50;;;11.50;99.90;;;;;;5069746;28;20711;-64
2021/05/29 00:03:31;;;;;;;7.10;6.37;;;11.50;99.90;;;;;;5069875;28;20479;-64
2021/05/29 00:05:57;;;;;;;7.60;6.80;;;11.60;99.90;;;;;;5069740;28;21118;-64
2021/05/29 00:08:24;;;;;;;7.10;6.40;;;11.60;99.90;;;;;;5069928;28;20455;-64
2021/05/29 00:10:55;;;;;;;6.60;6.00;;;11.60;99.90;;;;;;5069658;28;20539;-64
2021/05/29 00:13:22;;;;;;;7.80;6.00;;;11.60;99.90;;;;;;5070259;28;20451;-64
2021/05/29 00:15:49;;;;;;;6.90;5.80;;;11.50;99.90;;;;;;5069898;28;20459;-64
2021/05/29 00:18:16;;;;;;;6.30;5.70;;;11.50;99.90;;;;;;5069689;28;20447;-64
2021/05/29 00:20:42;;;;;;;6.80;5.83;;;11.50;99.90;;;;;;5069244;28;20562;-64
2021/05/29 00:23:10;;;;;;;6.63;6.03;;;11.40;99.90;;;;;;5069706;28;20490;-64
2021/05/29 00:25:38;;;;;;;9.03;6.60;;;11.30;99.90;;;;;;5069962;28;20451;-65
2021/05/29 00:28:05;;;;;;;7.67;6.87;;;11.40;99.90;;;;;;5070325;28;20489;-65
2021/05/29 00:30:32;;;;;;;6.60;5.87;;;11.40;99.90;;;;;;5069424;28;20473;-64
2021/05/29 00:32:59;;;;;;;7.67;5.70;;;11.40;99.90;;;;;;5069833;28;20867;-65
2021/05/29 00:35:25;;;;;;;5.57;5.07;;;11.40;99.90;;;;;;5069747;28;21121;-64
2021/05/29 00:37:51;;;;;;;6.00;5.40;;;11.30;99.90;;;;;;5069841;28;20969;-64
2021/05/29 00:40:18;;;;;;;6.73;6.13;;;11.30;99.90;;;;;;5068994;28;20825;-64
2021/05/29 00:42:46;;;;;;;7.50;6.40;;;11.20;99.90;;;;;;5069645;28;20483;-64
2021/05/29 00:45:13;;;;;;;6.27;5.60;;;11.20;99.90;;;;;;5069614;28;20447;-64
2021/05/29 00:47:39;;;;;;;6.50;5.90;;;11.20;99.90;;;;;;5069537;28;20439;-64
2021/05/29 00:50:08;;;;;;;5.70;5.20;;;11.30;99.90;;;;;;5069128;28;20463;-64
2021/05/29 00:52:35;;;;;;;5.90;5.30;;;11.30;99.90;;;;;;5069419;28;20534;-64
2021/05/29 00:55:05;;;;;;;7.30;6.60;;;11.30;99.90;;;;;;5069685;28;20439;-66
2021/05/29 00:57:31;;;;;;;6.80;6.20;;;11.30;99.90;;;;;;5069898;28;20536;-65
2021/05/29 00:59:59;;;;;;;6.17;5.50;;;11.40;99.90;;;;;;5069192;28;20530;-66
2021/05/29 01:02:26;;;;;;;6.40;5.80;;;11.20;99.90;;;;;;5069493;28;21092;-65
2021/05/29 01:04:53;;;;;;;6.80;6.10;;;11.20;99.90;;;;;;5069529;28;20920;-65
2021/05/29 01:07:19;;;;;;;7.63;5.70;;;11.20;99.90;;;;;;5069747;28;20453;-65
2021/05/29 01:09:46;;;;;;;6.73;6.13;;;11.10;99.90;;;;;;5070242;28;20476;-65
2021/05/29 01:12:14;;;;;;;6.20;5.60;;;11.00;99.90;;;;;;5073351;28;20443;-66
2021/05/29 01:14:47;;;;;;;8.10;7.10;;;11.10;99.90;;;;;;5073389;28;20447;-65
2021/05/29 01:17:15;;;;;;;6.97;6.30;;;11.00;99.90;;;;;;5073168;28;20489;-65
2021/05/29 01:19:41;;;;;;;9.57;7.30;;;11.00;99.90;;;;;;5072730;28;20455;-65
2021/05/29 01:22:10;;;;;;;11.50;8.93;;;11.00;99.90;;;;;;5072850;28;20553;-65
2021/05/29 01:24:38;;;;;;;8.63;7.73;;;11.00;99.90;;;;;;5073149;28;20530;-65
2021/05/29 01:27:06;;;;;;;9.20;7.47;;;10.90;99.90;;;;;;5072963;28;20445;-65
2021/05/29 01:29:34;;;;;;;7.53;6.83;;;10.90;99.90;;;;;;5072562;28;20762;-65
2021/05/29 01:32:02;;;;;;;7.43;6.70;;;10.90;99.90;;;;;;5072774;28;20466;-65
2021/05/29 01:34:31;;;;;;;6.80;6.10;;;10.90;99.90;;;;;;5072752;28;20545;-65
2021/05/29 01:36:58;;;;;;;7.27;6.53;;;11.00;99.90;;;;;;5072693;28;20443;-64
2021/05/29 01:39:25;;;;;;;6.73;6.03;;;11.00;99.90;;;;;;5072465;28;20458;-64
2021/05/29 01:41:52;;;;;;;7.63;6.83;;;10.90;99.90;;;;;;5072429;28;20471;-65
2021/05/29 01:44:19;;;;;;;7.30;6.23;;;10.90;99.90;;;;;;5072494;28;20841;-65
2021/05/29 01:46:45;;;;;;;8.60;6.73;;;10.90;99.90;;;;;;5072413;28;21016;-64
2021/05/29 01:49:11;;;;;;;7.17;6.13;;;10.80;99.90;;;;;;5072505;28;20539;-64
2021/05/29 01:51:38;;;;;;;6.37;5.73;;;10.80;99.90;;;;;;5072316;28;20467;-65
2021/05/29 01:54:04;;;;;;;6.97;6.27;;;10.80;99.90;;;;;;5072549;28;20492;-65
2021/05/29 01:56:32;;;;;;;7.30;6.60;;;10.80;99.90;;;;;;5072550;28;20549;-65
2021/05/29 01:58:58;;;;;;;7.30;6.60;;;10.80;99.90;;;;;;5072121;28;20569;-64
2021/05/29 02:01:24;;;;;;;6.00;5.40;;;10.80;99.90;;;;;;5072035;28;20570;-65
2021/05/29 02:03:51;;;;;;;6.37;5.77;;;10.80;99.90;;;;;;5072170;28;20483;-65
2021/05/29 02:06:17;;;;;;;6.77;5.93;;;10.80;99.90;;;;;;5072512;28;20933;-66
2021/05/29 02:08:44;;;;;;;7.50;6.50;;;10.80;99.90;;;;;;5072338;28;20484;-65
2021/05/29 02:11:11;;;;;;;7.47;6.70;;;10.80;99.90;;;;;;5072066;28;20474;-66
2021/05/29 02:13:40;;;;;;;8.53;6.77;;;10.70;99.90;;;;;;5072115;28;20539;-64
2021/05/29 02:16:09;;;;;;;8.20;6.00;;;10.80;99.90;;;;;;5072670;28;20546;-66
2021/05/29 02:18:36;;;;;;;6.90;6.13;;;10.70;99.90;;;;;;5072973;28;20443;-64
2021/05/29 02:21:04;;;;;;;8.87;6.83;;;10.60;99.90;;;;;;5071212;28;20469;-65
2021/05/29 02:23:33;;;;;;;8.67;7.13;;;10.60;99.90;;;;;;5071580;28;20597;-65
2021/05/29 02:26:02;;;;;;;8.33;6.50;;;10.50;99.90;;;;;;5071641;28;20443;-65
2021/05/29 02:28:29;;;;;;;7.50;6.23;;;10.40;99.90;;;;;;5071553;28;20934;-65
2021/05/29 02:30:57;;;;;;;7.73;6.80;;;10.20;99.90;;;;;;5072064;28;20470;-66
2021/05/29 02:33:26;;;;;;;7.40;6.70;;;10.10;99.90;;;;;;5071856;28;20570;-65
2021/05/29 02:35:53;;;;;;;8.57;6.87;;;10.10;99.90;;;;;;5071838;28;20534;-65
2021/05/29 02:38:19;;;;;;;7.77;6.83;;;10.00;99.90;;;;;;5071637;28;20442;-66
2021/05/29 02:40:46;;;;;;;7.47;6.77;;;10.10;99.90;;;;;;5071176;28;20972;-65
2021/05/29 02:43:13;;;;;;;8.10;7.33;;;10.10;99.90;;;;;;5071396;28;20574;-66
2021/05/29 02:45:40;;;;;;;7.30;6.60;;;10.00;99.90;;;;;;5071246;28;21028;-64
2021/05/29 02:48:08;;;;;;;7.90;7.10;;;9.90;99.90;;;;;;5071397;28;20461;-67
2021/05/29 02:50:35;;;;;;;8.47;7.40;;;9.90;99.90;;;;;;5071258;28;20941;-64
2021/05/29 02:53:01;;;;;;;8.33;7.50;;;9.80;99.90;;;;;;5071577;28;20442;-65
2021/05/29 02:55:28;;;;;;;8.50;7.37;;;9.70;99.90;;;;;;5071496;28;20809;-65
2021/05/29 02:57:55;;;;;;;12.10;8.30;;;9.60;99.90;;;;;;5071760;28;20530;-68
2021/05/29 03:00:24;;;;;;;8.00;7.20;;;9.70;99.90;;;;;;5070954;28;20664;-66
2021/05/29 03:02:51;;;;;;;8.83;7.93;;;9.60;99.90;;;;;;5071201;28;20546;-66
2021/05/29 03:05:19;;;;;;;8.70;7.90;;;9.50;99.90;;;;;;5071216;28;20538;-66
2021/05/29 03:07:47;;;;;;;9.23;8.30;;;9.50;99.90;;;;;;5070964;28;20470;-64
2021/05/29 03:10:14;;;;;;;8.60;7.77;;;9.40;99.90;;;;;;5070217;28;20471;-66
2021/05/29 03:12:42;;;;;;;10.20;9.20;;;9.30;99.90;;;;;;5070437;28;20513;-65
2021/05/29 03:15:10;;;;;;;9.80;8.90;;;9.20;99.90;;;;;;5070456;28;20989;-67
2021/05/29 03:17:37;;;;;;;11.47;9.23;;;9.20;99.90;;;;;;5070360;28;20447;-65
2021/05/29 03:20:04;;;;;;;13.40;9.03;;;9.20;99.90;;;;;;5070188;28;20474;-65
2021/05/29 03:22:32;;;;;;;10.00;8.40;;;9.20;99.90;;;;;;5070113;28;20482;-65
2021/05/29 03:24:58;;;;;;;9.40;8.50;;;9.10;99.90;;;;;;5070632;28;20455;-64
2021/05/29 03:27:25;;;;;;;10.17;9.10;;;9.00;99.90;;;;;;5070329;28;20539;-66
2021/05/29 03:29:53;;;;;;;12.10;10.10;;;9.00;99.90;;;;;;5070395;28;20450;-65
2021/05/29 03:32:19;;;;;;;10.63;9.50;;;9.00;99.90;;;;;;5070197;28;20980;-65
2021/05/29 03:34:46;;;;;;;10.57;9.37;;;9.00;99.90;;;;;;5070276;28;20439;-65
2021/05/29 03:37:12;;;;;;;8.97;8.07;;;9.10;99.90;;;;;;5070480;28;20601;-65
2021/05/29 03:39:39;;;;;;;10.00;8.67;;;9.10;99.90;;;;;;5070303;28;20577;-65
2021/05/29 03:42:07;;;;;;;10.10;9.10;;;9.10;99.90;;;;;;5070142;28;20626;-65
2021/05/29 03:44:33;;;;;;;13.10;8.63;;;9.20;99.90;;;;;;5070252;28;20493;-65
2021/05/29 03:47:00;;;;;;;8.60;7.70;;;9.20;99.90;;;;;;5070251;28;20447;-65
2021/05/29 03:49:26;;;;;;;9.17;8.27;;;9.30;99.90;;;;;;5069850;28;20592;-65
2021/05/29 03:51:53;;;;;;;9.53;8.50;;;9.40;99.90;;;;;;5069999;28;20463;-65
2021/05/29 03:54:20;;;;;;;9.67;8.40;;;9.40;99.90;;;;;;5069848;28;20950;-64
2021/05/29 03:56:47;;;;;;;9.13;8.23;;;9.40;99.90;;;;;;5069492;28;20459;-65
2021/05/29 03:59:15;;;;;;;9.73;8.73;;;9.40;99.90;;;;;;5069794;28;20447;-65
2021/05/29 04:01:42;;;;;;;11.90;10.70;;;9.40;99.90;;;;;;5069618;28;20511;-65
2021/05/29 04:04:10;;;;;;;11.40;9.00;;;9.40;99.90;;;;;;5069663;28;21003;-64
2021/05/29 04:06:39;;;;;;;10.93;8.37;;;9.50;99.90;;;;;;5069608;28;20493;-65
2021/05/29 04:09:08;;;;;;;8.43;7.60;;;9.50;99.90;;;;;;5069546;28;20453;-65
2021/05/29 04:11:35;;;;;;;9.17;8.00;;;9.60;99.90;;;;;;5069827;28;20516;-64
2021/05/29 04:14:03;;;;;;;8.43;7.33;;;9.60;99.90;;;;;;5069931;28;20856;-65
2021/05/29 04:16:30;;;;;;;11.17;8.70;;;9.60;99.90;;;;;;5069822;28;20542;-65
2021/05/29 04:18:56;;;;;;;9.40;7.60;;;9.60;99.90;;;;;;5069542;28;20530;-66
2021/05/29 04:21:23;;;;;;;9.00;7.47;;;9.70;99.90;;;;;;5069880;28;20478;-64
2021/05/29 04:23:49;;;;;;;7.73;6.93;;;9.80;99.90;;;;;;5070040;28;20477;-64
2021/05/29 04:26:15;;;;;;;9.23;8.23;;;9.70;99.90;;;;;;5069581;28;20447;-63
2021/05/29 04:28:42;;;;;;;8.00;7.20;;;9.60;99.90;;;;;;5069779;28;20504;-65
2021/05/29 04:31:09;;;;;;;8.90;8.00;;;9.60;99.90;;;;;;5069456;28;20467;-64
2021/05/29 04:33:35;;;;;;;10.40;7.97;;;9.60;99.90;;;;;;5069534;28;20441;-64
2021/05/29 04:36:02;;;;;;;7.80;7.07;;;9.60;99.90;;;;;;5070127;28;20461;-64
2021/05/29 04:38:28;;;;;;;9.20;8.17;;;9.60;99.90;;;;;;5070047;28;20451;-64
2021/05/29 04:40:55;;;;;;;8.50;7.60;;;9.60;99.90;;;;;;5069776;28;20972;-64
2021/05/29 04:43:22;;;;;;;8.03;7.23;;;9.70;99.90;;;;;;5069668;28;20535;-64
2021/05/29 04:45:48;;;;;;;8.63;7.63;;;9.80;99.90;;;;;;5071990;28;20845;-64
2021/05/29 04:48:17;;;;;;;9.33;7.80;;;9.90;99.90;;;;;;5073815;28;20450;-64
2021/05/29 04:53:29;;;;;;;7.07;6.27;;;10.10;99.90;;;;;;5073879;28;20493;-64
2021/05/29 04:55:57;;;;;;;8.50;7.60;;;10.30;99.90;;;;;;5073603;28;20446;-64
2021/05/29 04:58:24;;;;;;;10.97;6.83;;;10.50;99.90;;;;;;5073142;28;20505;-64
2021/05/29 05:00:50;;;;;;;8.00;7.10;;;10.50;99.90;;;;;;5073200;28;20465;-64
2021/05/29 05:03:17;;;;;;;7.57;6.87;;;10.50;99.90;;;;;;5073183;28;20474;-63
2021/05/29 05:05:44;;;;;;;9.90;7.10;;;10.50;99.90;;;;;;5073342;28;20443;-64
2021/05/29 05:08:10;;;;;;;8.50;7.60;;;10.50;99.90;;;;;;5073048;28;20516;-65
2021/05/29 05:10:36;;;;;;;7.67;6.87;;;10.50;99.90;;;;;;5072579;28;20466;-64
2021/05/29 05:13:03;;;;;;;8.43;7.57;;;10.50;99.90;;;;;;5073211;28;20530;-64
2021/05/29 05:15:29;;;;;;;8.17;7.07;;;10.60;99.90;;;;;;5073221;28;20450;-64
2021/05/29 05:17:56;;;;;;;9.53;7.23;;;10.70;99.90;;;;;;5073138;28;20499;-65
2021/05/29 05:20:24;;;;;;;7.97;6.83;;;10.70;99.90;;;;;;5073889;28;20478;-64
2021/05/29 05:22:51;;;;;;;8.23;7.37;;;10.80;99.90;;;;;;5074685;28;20483;-65
2021/05/29 05:25:18;;;;;;;8.50;7.60;;;10.80;99.90;;;;;;5074016;28;20443;-65
2021/05/29 05:27:44;;;;;;;7.53;6.80;;;10.80;99.90;;;;;;5072965;28;20469;-64
2021/05/29 05:30:13;;;;;;;7.73;6.73;;;10.90;99.90;;;;;;5072691;28;20462;-65
2021/05/29 05:32:41;;;;;;;7.90;7.10;;;10.80;99.90;;;;;;5073080;28;20443;-65
2021/05/29 05:35:12;;;;;;;7.57;6.70;;;10.90;99.90;;;;;;5072830;28;20443;-65
2021/05/29 05:37:39;;;;;;;7.30;6.60;;;11.00;99.90;;;;;;5072891;28;20871;-64
2021/05/29 05:40:08;;;;;;;8.87;7.10;;;11.20;99.90;;;;;;5072317;28;20546;-66
2021/05/29 05:42:35;;;;;;;6.80;6.20;;;11.40;99.90;;;;;;5072275;28;20449;-65
2021/05/29 05:45:03;;;;;;;7.00;5.70;;;11.40;99.90;;;;;;5072950;28;21017;-64
2021/05/29 05:47:29;;;;;;;7.37;6.57;;;11.50;99.90;;;;;;5072925;28;20533;-65
2021/05/29 05:49:56;;;;;;;7.37;6.40;;;11.70;99.90;;;;;;5072406;28;20453;-65
2021/05/29 05:52:22;;;;;;;9.10;6.67;;;11.80;99.90;;;;;;5072474;28;20449;-65
2021/05/29 05:54:49;;;;;;;7.83;7.13;;;11.90;99.90;;;;;;5072688;28;20973;-65
2021/05/29 05:57:16;;;;;;;6.73;6.10;;;12.00;99.90;;;;;;5072646;28;20982;-65
2021/05/29 05:59:42;;;;;;;7.80;6.23;;;12.10;99.90;;;;;;5073069;28;20449;-65
2021/05/29 06:02:08;;;;;;;6.10;5.50;;;12.20;99.90;;;;;;5072131;28;20599;-65
2021/05/29 06:04:35;;;;;;;6.10;5.20;;;12.20;99.90;;;;;;5071792;28;20493;-65
2021/05/29 06:07:01;;;;;;;6.57;5.90;;;12.30;99.90;;;;;;5071581;28;20447;-65
2021/05/29 06:09:29;;;;;;;6.87;6.20;;;12.30;99.90;;;;;;5071266;28;20512;-64
2021/05/29 06:11:56;;;;;;;6.10;5.50;;;12.40;99.90;;;;;;5071457;28;20996;-66
2021/05/29 06:19:51;;;;;;;6.73;6.10;;;12.60;99.90;;;;;;5071199;28;20439;-66
2021/05/29 06:22:17;;;;;;;5.57;4.97;;;12.70;99.90;;;;;;5071409;28;20868;-65
2021/05/29 06:24:44;;;;;;;7.30;5.17;;;12.80;99.90;;;;;;5071535;28;20946;-65
2021/05/29 06:27:11;;;;;;;6.57;5.23;;;12.90;99.90;;;;;;5071419;28;20476;-65
2021/05/29 06:29:38;;;;;;;5.87;4.53;;;13.00;99.90;;;;;;5071158;28;20454;-65
2021/05/29 06:32:05;;;;;;;5.07;4.57;;;13.10;99.90;;;;;;5071904;28;20968;-66
2021/05/29 06:34:31;;;;;;;5.07;4.17;;;13.10;99.90;;;;;;5071381;28;20439;-65
2021/05/29 06:36:57;;;;;;;8.00;4.37;;;13.30;99.90;;;;;;5071407;28;20445;-65
2021/05/29 06:39:24;;;;;;;4.50;4.10;;;13.30;99.90;;;;;;5071153;28;20964;-65
2021/05/29 06:41:50;;;;;;;5.67;4.30;;;13.40;99.90;;;;;;5071307;28;20816;-65
2021/05/29 06:44:17;;;;;;;5.50;4.90;;;13.60;99.90;;;;;;5071378;28;20475;-65
2021/05/29 06:46:44;;;;;;;5.20;4.27;;;13.60;99.90;;;;;;5071218;28;20447;-65
2021/05/29 06:49:11;;;;;;;4.83;4.10;;;13.80;99.90;;;;;;5071094;28;20827;-66
2021/05/29 06:51:42;;;;;;;6.93;4.13;;;13.90;99.90;;;;;;5070956;28;20470;-65
2021/05/29 06:54:13;;;;;;;4.97;4.23;;;14.00;99.90;;;;;;5071020;28;20794;-65
2021/05/29 06:59:24;;;;;;;6.43;3.90;;;14.20;99.90;;;;;;5070150;28;20830;-65
2021/05/29 07:01:51;;;;;;;4.33;3.83;;;14.30;99.90;;;;;;5070453;28;20463;-65
2021/05/29 07:04:18;;;;;;;4.33;3.80;;;14.40;99.90;;;;;;5070271;28;20515;-65
2021/05/29 07:06:45;;;;;;;6.00;5.07;;;14.50;99.90;;;;;;5070475;28;20451;-65
2021/05/29 07:09:12;;;;;;;5.10;3.10;;;14.50;99.90;;;;;;5069526;28;21016;-66
2021/05/29 07:11:40;;;;;;;7.80;3.33;;;14.60;99.90;;;;;;5070377;28;20479;-65
2021/05/29 07:14:06;;;;;;;5.37;3.60;;;14.70;99.90;;;;;;5070347;28;20438;-65
2021/05/29 07:16:35;;;;;;;4.33;3.70;;;14.80;99.90;;;;;;5070577;28;20451;-65
2021/05/29 07:19:03;;;;;;;6.23;4.43;;;14.90;99.90;;;;;;5070265;28;20504;-66
2021/05/29 07:21:29;;;;;;;3.97;3.47;;;15.00;99.90;;;;;;5070197;28;20482;-65
2021/05/29 07:23:55;;;;;;;5.17;3.33;;;15.10;99.90;;;;;;5070146;28;20487;-64
2021/05/29 07:26:22;;;;;;;4.70;3.67;;;15.30;99.90;;;;;;5070154;28;20447;-66
2021/05/29 07:28:48;;;;;;;4.00;3.00;;;15.30;99.90;;;;;;5070217;28;20535;-65
2021/05/29 07:31:15;;;;;;;4.00;3.10;;;15.40;99.90;;;;;;5070131;28;20840;-65
2021/05/29 07:33:42;;;;;;;3.90;3.40;;;15.50;99.90;;;;;;5069991;28;20480;-65
2021/05/29 07:36:08;;;;;;;4.57;3.00;;;15.60;99.90;;;;;;5070121;28;20482;-65
2021/05/29 07:38:35;;;;;;;6.27;3.83;;;15.70;99.90;;;;;;5069855;28;20479;-65
2021/05/29 07:41:01;;;;;;;3.53;2.33;;;15.80;99.90;;;;;;5069434;28;20838;-65
2021/05/29 07:43:28;;;;;;;3.50;3.20;;;15.90;99.90;;;;;;5069791;28;20507;-65
2021/05/29 07:45:54;;;;;;;3.60;3.27;;;16.00;99.90;;;;;;5070085;28;20482;-65
2021/05/29 07:48:21;;;;;;;4.60;3.03;;;16.00;99.90;;;;;;5069995;28;20524;-65
2021/05/29 07:51:02;;;;;;;4.60;3.13;;;16.10;99.90;;;;;;5069566;28;20455;-65
2021/05/29 07:53:30;;;;;;;3.67;3.00;;;16.20;99.90;;;;;;5069680;28;20447;-65
2021/05/29 07:55:57;;;;;;;3.67;3.13;;;16.30;99.90;;;;;;5069785;28;20538;-66
2021/05/29 07:58:23;;;;;;;3.17;2.50;;;16.40;99.90;;;;;;5070113;28;20534;-65
2021/05/29 08:00:51;;;;;;;4.18;3.10;;;16.50;99.90;;;;;;5069346;28;20343;-66
2021/05/29 08:03:19;;;;;;;4.80;3.50;;;16.60;99.90;;;;;;5069779;28;20247;-65
2021/05/29 08:05:46;;;;;;;4.33;3.10;;;16.50;99.90;;;;;;5069812;28;20452;-65
2021/05/29 08:08:14;;;;;;;4.60;3.40;;;16.60;99.90;;;;;;5069574;28;20443;-65
2021/05/29 08:10:40;;;;;;;3.63;2.70;;;16.70;99.90;;;;;;5069566;28;20836;-66
2021/05/29 08:13:07;;;;;;;4.03;3.63;;;16.70;99.90;;;;;;5069803;28;20443;-66
2021/05/29 08:15:33;;;;;;;3.97;3.57;;;16.70;99.90;;;;;;5069771;28;20878;-66
2021/05/29 08:18:00;;;;;;;3.73;2.73;;;16.80;99.90;;;;;;5069655;28;20439;-65
2021/05/29 08:20:26;;;;;;;3.00;2.40;;;16.80;99.90;;;;;;5073059;28;20463;-65
2021/05/29 08:22:52;;;;;;;3.50;2.13;;;16.90;98.70;;;;;;5073820;28;20487;-66
2021/05/29 08:25:19;;;;;;;4.80;2.30;;;17.00;99.90;;;;;;5074309;28;20451;-65
2021/05/29 08:27:46;;;;;;;2.97;2.40;;;17.20;99.60;;;;;;5074295;28;20439;-66
2021/05/29 08:30:13;;;;;;;3.17;2.10;;;17.30;99.90;;;;;;5073694;28;20509;-65
2021/05/29 08:32:40;;;;;;;4.70;2.60;;;17.40;99.00;;;;;;5073889;28;20446;-66
2021/05/29 08:35:08;;;;;;;7.23;2.33;;;17.50;99.10;;;;;;5073669;28;20446;-65
2021/05/29 08:37:34;;;;;;;3.80;2.40;;;17.60;98.80;;;;;;5073842;28;20447;-65
2021/05/29 08:40:01;;;;;;;4.00;2.93;;;17.50;99.10;;;;;;5073181;28;20453;-66
2021/05/29 08:42:28;;;;;;;4.67;2.60;;;17.60;99.90;;;;;;5073369;28;20447;-66
2021/05/29 08:44:58;;;;;;;7.83;2.27;;;17.70;98.30;;;;;;5073145;28;20479;-66
2021/05/29 08:47:26;;;;;;;3.70;2.67;;;17.80;97.00;;;;;;5073344;28;20457;-65
2021/05/29 08:49:52;;;;;;;4.13;2.40;;;17.70;96.30;;;;;;5072850;28;20541;-65
2021/05/29 08:52:18;;;;;;;3.63;2.67;;;17.70;96.40;;;;;;5073515;28;20585;-66
2021/05/29 08:54:45;;;;;;;2.30;2.00;;;17.70;97.00;;;;;;5072991;28;20443;-66
2021/05/29 08:57:14;;;;;;;5.20;2.40;;;17.60;97.10;;;;;;5073145;28;20441;-66
2021/05/29 08:59:42;;;;;;;2.60;2.10;;;17.80;98.70;;;;;;5072758;28;20499;-66
2021/05/29 09:02:08;;;;;;;3.80;3.03;;;18.00;96.80;;;;;;5072965;28;20496;-66
2021/05/29 09:04:35;;;;;;;3.40;3.00;;;18.10;96.60;;;;;;5073141;28;20475;-65
2021/05/29 09:07:02;;;;;;;3.73;2.33;;;18.20;96.30;;;;;;5073025;28;20453;-66
2021/05/29 09:09:29;;;;;;;3.27;2.80;;;18.30;96.10;;;;;;5072436;28;20945;-66
2021/05/29 09:11:58;;;;;;;4.90;2.23;;;18.40;97.10;;;;;;5073182;28;20545;-66
2021/05/29 09:14:39;;;;;;;3.07;2.73;;;18.60;96.60;;;;;;5073002;28;20888;-65
2021/05/29 09:17:16;;;;;;;3.00;2.60;;;18.70;95.60;;;;;;5073128;28;20834;-65
2021/05/29 09:19:57;;;;;;;3.13;2.80;;;18.60;95.60;;;;;;5072954;28;20477;-65
2021/05/29 09:22:26;;;;;;;3.40;2.57;;;18.70;95.40;;;;;;5072651;28;20553;-65
2021/05/29 09:25:00;;;;;;;4.63;2.73;;;18.50;95.40;;;;;;5072544;28;20512;-65
2021/05/29 09:27:26;;;;;;;3.30;2.87;;;18.50;95.40;;;;;;5072567;28;20955;-65
2021/05/29 09:29:53;;;;;;;5.00;3.77;;;18.60;95.00;;;;;;5072475;28;20447;-66
2021/05/29 09:32:20;;;;;;;4.00;2.77;;;18.70;95.40;;;;;;5072130;28;20537;-66
2021/05/29 09:34:50;;;;;;;5.93;2.23;;;19.20;96.00;;;;;;5072866;28;20439;-65
2021/05/29 09:37:20;;;;;;;2.77;2.17;;;19.60;94.80;;;;;;5072674;28;20451;-66
2021/05/29 09:39:49;;;;;;;4.50;2.27;;;19.80;94.80;;;;;;5072452;28;20439;-65
2021/05/29 09:42:17;;;;;;;4.10;2.67;;;20.10;94.60;;;;;;5074288;28;20455;-65
2021/05/29 09:44:43;;;;;;;5.50;2.87;;;20.50;92.30;;;;;;5072282;28;20855;-65
2021/05/29 09:47:13;;;;;;;4.13;2.97;;;20.50;92.20;;;;;;5071998;28;20546;-66
2021/05/29 09:49:49;;;;;;;3.10;2.30;;;20.60;93.10;;;;;;5071550;28;20957;-66
2021/05/29 09:52:29;;;;;;;3.10;1.87;;;20.10;92.50;;;;;;5071886;28;20446;-66
2021/05/29 09:54:57;;;;;;;4.13;2.40;;;19.90;93.70;;;;;;5071726;28;20439;-65
2021/05/29 09:57:23;;;;;;;3.50;2.47;;;19.70;93.60;;;;;;5071944;28;20487;-66
2021/05/29 09:59:54;;;;;;;7.60;2.63;;;19.40;93.20;;;;;;5071668;28;20526;-66
2021/05/29 10:02:20;;;;;;;4.27;2.57;;;19.10;93.80;;;;;;5071864;28;20896;-66
2021/05/29 10:04:53;;;;;;;3.67;2.37;;;18.90;94.70;;;;;;5071544;28;20485;-66
2021/05/29 10:07:20;;;;;;;4.33;2.20;;;18.80;92.80;;;;;;5071870;28;20522;-66
2021/05/29 10:09:47;;;;;;;2.80;2.20;;;18.70;94.50;;;;;;5071396;28;20451;-65
2021/05/29 10:12:14;;;;;;;3.50;1.90;;;18.60;93.30;;;;;;5071557;28;20577;-66
2021/05/29 10:14:41;;;;;;;3.60;2.17;;;18.60;93.40;;;;;;5071660;28;20471;-65
2021/05/29 10:17:09;;;;;;;4.50;2.10;;;19.30;91.30;;;;;;5071680;28;20461;-66
2021/05/29 10:19:37;;;;;;;2.67;1.90;;;20.20;90.40;;;;;;5071498;28;20461;-66
2021/05/29 10:22:06;;;;;;;2.67;2.03;;;20.60;88.30;;;;;;5071804;28;20475;-66
2021/05/29 10:24:32;;;;;;;3.50;1.80;;;21.00;85.00;;;;;;5071620;28;21080;-66
2021/05/29 10:27:05;;;;;;;3.63;2.20;;;21.40;84.30;;;;;;5071776;28;20486;-66
2021/05/29 10:29:31;;;;;;;4.00;1.83;;;21.70;83.00;;;;;;5071178;28;20949;-66
2021/05/29 10:32:15;;;;;;;4.40;1.73;;;22.20;83.20;;;;;;5071146;28;20539;-65
2021/05/29 10:34:56;;;;;;;2.80;1.60;;;21.50;81.60;;;;;;5071300;28;20447;-65
2021/05/29 10:37:32;;;;;;;2.60;1.83;;;20.60;81.10;;;;;;5071060;28;20466;-65
2021/05/29 10:40:23;;;;;;;3.53;2.00;;;20.90;84.20;;;;;;5070560;28;20793;-65
2021/05/29 10:43:10;;;;;;;3.17;1.73;;;21.30;85.20;;;;;;5069718;28;21143;-65
2021/05/29 10:45:39;;;;;;;2.27;1.50;;;21.70;82.60;;;;;;5071286;28;20458;-65
2021/05/29 10:48:07;;;;;;;2.30;1.80;;;21.90;82.10;;;;;;5071156;28;20450;-65
2021/05/29 10:50:54;;;;;;;3.23;1.60;;;22.10;79.80;;;;;;5069674;28;20557;-65
2021/05/29 10:53:43;;;;;;;2.90;1.87;;;21.70;79.20;;;;;;5071093;28;20994;-66
2021/05/29 10:56:32;;;;;;;2.40;1.70;;;21.70;82.80;;;;;;5058085;28;20471;-65
2021/05/29 10:59:11;;;;;;;2.20;1.60;;;22.30;80.50;;;;;;5070485;28;20950;-65
2021/05/29 11:01:59;;;;;;;3.47;2.00;;;22.50;77.60;;;;;;5070824;28;20463;-65
2021/05/29 11:04:26;;;;;;;3.07;1.70;;;22.60;75.90;;;;;;5070670;28;20484;-65
2021/05/29 11:06:54;;;;;;;3.83;1.70;;;22.60;76.70;;;;;;5070678;28;20450;-65
2021/05/29 11:09:56;;;;;;;2.60;1.73;;;22.50;76.40;;;;;;5070199;28;20530;-66
2021/05/29 11:12:47;;;;;;;2.20;1.30;;;22.60;75.30;;;;;;5065168;28;20454;-65
2021/05/29 11:15:13;;;;;;;3.37;1.70;;;22.80;72.80;;;;;;5070348;28;20566;-65
2021/05/29 11:17:40;;;;;;;2.47;1.57;;;22.80;70.40;;;;;;5070221;28;20893;-64
2021/05/29 11:20:13;;;;;;;2.80;1.40;;;22.90;67.40;;;;;;5069701;28;20988;-65
2021/05/29 11:22:41;;;;;;;2.00;1.30;;;22.70;72.70;;;;;;5070217;28;20856;-65
2021/05/29 11:25:12;;;;;;;2.87;1.73;;;22.70;72.40;;;;;;5070103;28;20571;-65
2021/05/29 11:27:39;;;;;;;2.20;1.43;;;22.70;68.70;;;;;;5070340;28;20451;-65
2021/05/29 11:30:08;;;;;;;2.60;1.30;;;22.40;72.20;;;;;;5069719;28;20985;-65
2021/05/29 11:32:41;;;;;;;2.90;1.33;;;22.30;69.90;;;;;;5069956;28;20508;-65
2021/05/29 11:35:08;;;;;;;2.93;1.30;;;22.20;69.60;;;;;;5070123;28;20439;-65
2021/05/29 11:37:34;;;;;;;2.47;1.47;;;22.60;70.30;;;;;;5070235;28;20477;-65
2021/05/29 11:40:00;;;;;;;2.67;1.27;;;22.50;67.00;;;;;;5069708;28;20472;-65
2021/05/29 11:42:28;;;;;;;1.80;1.20;;;22.30;67.00;;;;;;5070085;28;20443;-65
2021/05/29 11:45:15;;;;;;;2.07;1.30;;;22.80;68.70;;;;;;5069914;28;20566;-66
2021/05/29 11:47:41;;;;;;;1.90;1.00;;;24.00;70.50;;;;;;5069768;28;20941;-66
2021/05/29 11:50:15;;;;;;;1.73;0.97;;;24.50;69.30;;;;;;5069645;28;20817;-65
2021/05/29 11:52:44;;;;;;;2.30;1.00;;;24.60;67.40;;;;;;5069530;28;20443;-65
2021/05/29 11:55:12;;;;;;;1.80;1.00;;;24.50;59.70;;;;;;5069667;28;20438;-66
2021/05/29 11:57:58;;;;;;;2.80;1.17;;;24.50;62.20;;;;;;5069834;28;20880;-65
2021/05/29 12:00:24;;;;;;;2.30;1.27;;;23.70;61.10;;;;;;5069368;28;20499;-65
2021/05/29 12:02:51;;;;;;;1.97;1.10;;;23.10;64.00;;;;;;5069818;28;21319;-65
2021/05/29 12:05:18;;;;;;;2.20;1.20;;;23.00;60.80;;;;;;5069803;28;20478;-65
2021/05/29 12:08:03;;;;;;;2.17;1.13;;;23.30;60.40;;;;;;5069814;28;20458;-66
2021/05/29 12:10:49;;;;;;;2.20;1.00;;;23.70;59.10;;;;;;5069758;28;20481;-66
2021/05/29 12:13:27;;;;;;;2.00;1.20;;;24.80;59.00;;;;;;5070073;28;20454;-66
2021/05/29 12:15:55;;;;;;;3.30;1.00;;;24.90;59.80;;;;;;5070074;28;20442;-65
2021/05/29 12:18:22;;;;;;;2.87;1.33;;;24.80;62.30;;;;;;5069895;28;20488;-65
2021/05/29 12:20:57;;;;;;;3.23;1.40;;;25.60;63.10;;;;;;5069616;28;20605;-65
2021/05/29 12:23:23;;;;;;;2.90;1.30;;;25.10;57.20;;;;;;5070164;28;20549;-66
2021/05/29 12:25:50;;;;;;;2.50;1.20;;;24.80;57.60;;;;;;5070062;28;20443;-65
2021/05/29 12:28:17;;;;;;;3.40;1.90;;;24.80;60.80;;;;;;5069469;28;20493;-66
2021/05/29 12:30:48;;;;;;;2.40;1.10;;;25.10;58.30;;;;;;5069133;28;20463;-66
2021/05/29 12:33:22;;;;;;;2.70;1.13;;;25.60;55.60;;;;;;5069424;28;20451;-64
2021/05/29 12:35:49;;;;;;;2.97;1.20;;;25.30;56.20;;;;;;5069840;28;21039;-65
2021/05/29 12:38:16;;;;;;;3.90;1.87;;;24.80;57.00;;;;;;5069424;28;20451;-66
2021/05/29 12:40:58;;;;;;;2.37;1.80;;;25.00;59.40;;;;;;5069048;28;20469;-65
2021/05/29 12:43:25;;;;;;;1.90;0.87;;;24.90;56.00;;;;;;5069224;28;20455;-65
2021/05/29 12:45:52;;;;;;;1.77;0.87;;;24.00;54.60;;;;;;5069624;28;20451;-65
2021/05/29 12:48:19;;;;;;;2.20;1.13;;;23.00;56.90;;;;;;5069205;28;20455;-66
2021/05/29 12:51:08;;;;;;;1.87;0.90;;;22.70;59.20;;;;;;5068952;28;20489;-65
2021/05/29 12:53:36;;;;;;;1.70;0.90;;;22.60;59.00;;;;;;5069251;28;20448;-65
2021/05/29 12:56:11;;;;;;;2.13;1.07;;;22.10;59.20;;;;;;5069222;28;20534;-66
2021/05/29 12:58:38;;;;;;;1.67;0.90;;;22.00;59.20;;;;;;5069215;28;20963;-65
2021/05/29 13:09:34;;;;;;;1.90;0.83;;;21.20;63.10;;;;;;5072664;28;20456;-65
2021/05/29 13:12:13;;;;;;;2.80;1.00;;;21.10;61.50;;;;;;5072728;28;20498;-65
2021/05/29 13:14:40;;;;;;;1.80;0.90;;;21.00;63.50;;;;;;5072794;28;20451;-66